createdAt,value
2022-10-09T00:29:27.010Z,0
2022-10-09T00:30:07.455Z,0
2022-10-09T00:30:47.902Z,0
2022-10-09T00:31:28.358Z,0
2022-10-09T00:32:08.838Z,0
2022-10-09T00:32:49.581Z,0
2022-10-09T00:33:29.765Z,0
2022-10-09T00:34:10.285Z,0
2022-10-09T00:34:50.727Z,0
2022-10-09T00:35:31.182Z,0
2022-10-09T00:36:11.652Z,0
2022-10-09T00:36:52.110Z,0
2022-10-09T00:37:32.622Z,0
2022-10-09T00:44:57.920Z,0
2022-10-09T00:45:38.323Z,0
2022-10-09T00:46:18.852Z,0
2022-10-09T00:46:59.337Z,0
2022-10-09T00:47:39.738Z,0
2022-10-09T00:48:20.186Z,0
2022-10-09T00:49:00.646Z,0
2022-10-09T00:49:41.118Z,0
2022-10-09T00:50:21.589Z,0
2022-10-09T00:51:02.045Z,0
2022-10-09T00:51:42.556Z,0
2022-10-09T00:59:07.778Z,0
2022-10-09T00:59:48.235Z,0
2022-10-09T01:00:28.733Z,0
2022-10-09T01:01:09.264Z,0
2022-10-09T01:01:49.850Z,0
2022-10-09T01:02:30.240Z,0
2022-10-09T01:03:10.612Z,0
2022-10-09T01:03:51.088Z,0
2022-10-09T01:04:31.509Z,0
2022-10-09T01:05:12.005Z,0
2022-10-09T01:05:52.461Z,0
2022-10-09T01:13:17.670Z,0
2022-10-09T01:13:58.143Z,0
2022-10-09T01:14:38.601Z,0
2022-10-09T01:15:19.091Z,0
2022-10-09T01:15:59.636Z,0
2022-10-09T01:16:40.058Z,0
2022-10-09T01:17:20.544Z,0
2022-10-09T01:18:01.041Z,0
2022-10-09T01:18:41.518Z,0
2022-10-09T01:19:21.985Z,0
2022-10-09T01:20:02.496Z,0
2022-10-09T01:26:07.567Z,0
2022-10-09T01:26:48.047Z,0
2022-10-09T01:27:28.528Z,0
2022-10-09T01:28:09.109Z,0
2022-10-09T01:28:49.477Z,0
2022-10-09T01:29:29.959Z,0
2022-10-09T01:30:10.473Z,0
2022-10-09T01:30:50.920Z,0
2022-10-09T01:31:31.419Z,0
2022-10-09T01:32:11.841Z,0
2022-10-09T01:35:25.663Z,0
2022-10-09T01:36:06.905Z,0
2022-10-09T01:36:47.411Z,0
2022-10-09T01:37:27.901Z,0
2022-10-09T01:38:08.410Z,0
2022-10-09T01:38:48.894Z,0
2022-10-09T01:39:29.391Z,0
2022-10-09T01:40:09.845Z,0
2022-10-09T01:40:50.283Z,0
2022-10-09T01:48:15.581Z,0
2022-10-09T01:48:56.045Z,0
2022-10-09T01:49:36.547Z,0
2022-10-09T01:50:16.967Z,0
2022-10-09T01:50:57.466Z,0
2022-10-09T01:51:37.951Z,0
2022-10-09T01:52:18.419Z,0
2022-10-09T01:52:58.904Z,0
2022-10-09T01:53:39.404Z,0
2022-10-09T01:54:19.861Z,0
2022-10-09T01:55:00.332Z,0
2022-10-09T02:02:25.608Z,0
2022-10-09T02:03:06.077Z,0
2022-10-09T02:03:46.503Z,0
2022-10-09T02:04:26.975Z,0
2022-10-09T02:05:07.440Z,0
2022-10-09T02:05:47.943Z,0
2022-10-09T02:06:28.421Z,0
2022-10-09T02:07:08.959Z,0
2022-10-09T02:08:29.881Z,0
2022-10-09T02:09:10.332Z,0
2022-10-09T02:16:37.270Z,0
2022-10-09T02:17:15.968Z,0
2022-10-09T02:17:56.457Z,0
2022-10-09T02:18:36.931Z,0
2022-10-09T02:19:17.952Z,0
2022-10-09T02:19:58.438Z,0
2022-10-09T02:20:38.916Z,0
2022-10-09T02:21:19.421Z,0
2022-10-09T02:21:59.878Z,0
2022-10-09T02:22:40.332Z,0
2022-10-09T02:32:24.004Z,0
2022-10-09T02:33:04.353Z,0
2022-10-09T02:33:44.850Z,0
2022-10-09T02:34:25.350Z,0
2022-10-09T02:35:05.851Z,0
2022-10-09T02:35:46.315Z,0
2022-10-09T02:36:26.814Z,0
2022-10-09T02:37:07.259Z,0
2022-10-09T02:37:47.763Z,0
2022-10-09T02:38:28.216Z,0
2022-10-09T02:39:08.690Z,0
2022-10-09T02:46:34.102Z,0
2022-10-09T02:47:14.466Z,0
2022-10-09T02:48:35.387Z,0
2022-10-09T02:49:15.820Z,0
2022-10-09T02:49:56.305Z,0
2022-10-09T02:50:36.763Z,0
2022-10-09T02:51:17.223Z,0
2022-10-09T02:51:57.717Z,0
2022-10-09T02:52:38.195Z,0
2022-10-09T02:53:18.690Z,0
2022-10-09T03:00:43.919Z,0
2022-10-09T03:01:24.449Z,0
2022-10-09T03:02:04.949Z,0
2022-10-09T03:02:45.507Z,0
2022-10-09T03:03:25.962Z,0
2022-10-09T03:04:06.520Z,0
2022-10-09T03:04:46.916Z,0
2022-10-09T03:05:27.351Z,0
2022-10-09T03:06:07.823Z,0
2022-10-09T03:06:48.271Z,0
2022-10-09T03:07:28.766Z,0
2022-10-09T03:14:13.549Z,0
2022-10-09T03:14:54.015Z,0
2022-10-09T03:15:34.531Z,0
2022-10-09T03:16:15.040Z,0
2022-10-09T03:16:55.457Z,0
2022-10-09T03:17:35.949Z,0
2022-10-09T03:18:16.405Z,0
2022-10-09T03:18:56.880Z,0
2022-10-09T03:19:37.375Z,0
2022-10-09T03:20:17.849Z,0
2022-10-09T03:20:58.311Z,0
2022-10-09T03:21:38.787Z,0
2022-10-09T03:28:23.697Z,0
2022-10-09T03:29:04.092Z,0
2022-10-09T03:29:44.548Z,0
2022-10-09T03:30:25.024Z,0
2022-10-09T03:31:05.578Z,0
2022-10-09T03:31:52.163Z,0
2022-10-09T03:32:26.576Z,0
2022-10-09T03:33:07.024Z,0
2022-10-09T03:33:47.492Z,0
2022-10-09T03:34:27.987Z,0
2022-10-09T03:35:08.442Z,0
2022-10-09T03:42:33.636Z,0
2022-10-09T03:43:14.090Z,0
2022-10-09T03:43:54.551Z,0
2022-10-09T03:44:34.992Z,0
2022-10-09T03:45:15.453Z,0
2022-10-09T03:45:59.276Z,0
2022-10-09T03:46:37.046Z,0
2022-10-09T03:47:17.473Z,0
2022-10-09T03:48:38.394Z,0
2022-10-09T03:49:18.813Z,0
2022-10-09T03:56:43.929Z,0
2022-10-09T03:57:24.404Z,0
2022-10-09T03:58:04.879Z,0
2022-10-09T03:58:45.375Z,0
2022-10-09T03:59:25.850Z,0
2022-10-09T04:00:06.311Z,0
2022-10-09T04:00:46.781Z,0
2022-10-09T04:01:27.209Z,0
2022-10-09T04:02:07.726Z,0
2022-10-09T04:02:48.488Z,0
2022-10-09T04:03:28.649Z,0
2022-10-09T04:10:53.924Z,0
2022-10-09T04:11:34.349Z,0
2022-10-09T04:12:14.853Z,0
2022-10-09T04:12:55.272Z,0
2022-10-09T04:13:35.717Z,0
2022-10-09T04:14:16.201Z,0
2022-10-09T04:14:56.643Z,0
2022-10-09T04:15:37.111Z,0
2022-10-09T04:16:17.684Z,0
2022-10-09T04:16:58.095Z,0
2022-10-09T04:17:38.554Z,0
2022-10-09T04:25:03.726Z,0
2022-10-09T04:25:44.218Z,0
2022-10-09T04:26:24.685Z,0
2022-10-09T04:27:05.154Z,0
2022-10-09T04:27:45.629Z,0
2022-10-09T04:28:26.189Z,0
2022-10-09T04:29:06.669Z,0
2022-10-09T04:29:47.112Z,0
2022-10-09T04:30:27.581Z,0
2022-10-09T04:31:08.145Z,0
2022-10-09T04:31:48.591Z,0
2022-10-09T04:39:13.798Z,0
2022-10-09T04:39:54.269Z,0
2022-10-09T04:40:34.758Z,0
2022-10-09T04:41:15.239Z,0
2022-10-09T04:41:55.687Z,0
2022-10-09T04:42:36.206Z,0
2022-10-09T04:43:16.645Z,0
2022-10-09T04:43:57.086Z,0
2022-10-09T04:44:37.530Z,0
2022-10-09T04:45:17.985Z,0
2022-10-09T04:45:58.550Z,0
2022-10-09T04:50:18.156Z,0
2022-10-09T04:50:58.575Z,0
2022-10-09T04:51:39.118Z,0
2022-10-09T04:52:19.565Z,0
2022-10-09T04:53:00.045Z,0
2022-10-09T04:53:40.514Z,0
2022-10-09T04:54:20.971Z,0
2022-10-09T04:55:01.447Z,0
2022-10-09T04:55:41.947Z,0
2022-10-09T04:56:22.385Z,0
2022-10-09T04:57:02.892Z,0
2022-10-09T05:04:28.705Z,0
2022-10-09T05:05:09.188Z,0
2022-10-09T05:05:49.614Z,0
2022-10-09T05:06:30.082Z,0
2022-10-09T05:07:10.576Z,0
2022-10-09T05:07:51.080Z,0
2022-10-09T05:08:31.540Z,0
2022-10-09T05:09:12.033Z,0
2022-10-09T05:09:52.480Z,0
2022-10-09T05:10:32.976Z,0
2022-10-09T05:17:58.101Z,0
2022-10-09T05:18:38.568Z,4
2022-10-09T05:19:19.013Z,0
2022-10-09T05:22:32.696Z,4
2022-10-09T05:23:13.194Z,4
2022-10-09T05:23:53.629Z,8
2022-10-09T05:24:34.107Z,8
2022-10-09T05:25:14.654Z,12
2022-10-09T05:25:55.057Z,12
2022-10-09T05:26:35.558Z,8
2022-10-09T05:27:16.013Z,12
2022-10-09T05:27:56.527Z,12
2022-10-09T05:28:37.056Z,16
2022-10-09T05:29:17.447Z,16
2022-10-09T05:36:42.718Z,44
2022-10-09T05:38:03.656Z,48
2022-10-09T05:38:44.117Z,52
2022-10-09T05:39:24.568Z,60
2022-10-09T05:40:05.070Z,64
2022-10-09T05:40:45.542Z,68
2022-10-09T05:41:26.010Z,72
2022-10-09T05:42:06.429Z,80
2022-10-09T05:42:47.147Z,80
2022-10-09T05:43:27.408Z,88
2022-10-09T05:50:52.558Z,156
2022-10-09T05:51:33.001Z,164
2022-10-09T05:52:13.489Z,172
2022-10-09T05:52:53.994Z,184
2022-10-09T06:32:03.580Z,4324
2022-10-09T06:32:44.193Z,4432
2022-10-09T06:33:24.729Z,4460
2022-10-09T06:34:05.148Z,4528
2022-10-09T06:34:45.681Z,4468
2022-10-09T06:35:26.140Z,4576
2022-10-09T06:36:10.155Z,4764
2022-10-09T06:36:47.090Z,5028
2022-10-09T06:37:27.541Z,5268
2022-10-09T06:38:48.500Z,5808
2022-10-09T06:46:13.686Z,6068
2022-10-09T06:46:54.124Z,5804
2022-10-09T06:47:34.621Z,5540
2022-10-09T06:48:15.086Z,5092
2022-10-09T06:48:55.532Z,4856
2022-10-09T06:49:36.041Z,4676
2022-10-09T06:50:16.530Z,4604
2022-10-09T06:50:57.044Z,4720
2022-10-09T06:51:37.491Z,4692
2022-10-09T06:52:18.011Z,4640
2022-10-09T06:52:58.464Z,4568
2022-10-09T07:00:23.627Z,3724
2022-10-09T07:01:04.094Z,3788
2022-10-09T07:01:44.565Z,3912
2022-10-09T07:02:25.033Z,3976
2022-10-09T07:03:05.540Z,4052
2022-10-09T07:03:45.958Z,4108
2022-10-09T07:04:26.494Z,4092
2022-10-09T07:05:06.876Z,4032
2022-10-09T07:06:27.850Z,3820
2022-10-09T07:07:08.321Z,3780
2022-10-09T07:14:33.601Z,4008
2022-10-09T07:15:14.083Z,3956
2022-10-09T07:15:54.617Z,3880
2022-10-09T07:16:35.037Z,3844
2022-10-09T07:17:15.539Z,3816
2022-10-09T07:17:55.953Z,3804
2022-10-09T07:18:36.427Z,3760
2022-10-09T07:19:16.870Z,3748
2022-10-09T07:19:57.354Z,3836
2022-10-09T07:20:37.819Z,3864
2022-10-09T07:21:18.284Z,3876
2022-10-09T07:28:43.597Z,2492
2022-10-09T07:29:24.016Z,2436
2022-10-09T07:30:04.504Z,2356
2022-10-09T07:30:45.060Z,2260
2022-10-09T07:31:25.502Z,2072
2022-10-09T07:32:10.293Z,1860
2022-10-09T07:32:46.639Z,1772
2022-10-09T07:33:26.928Z,1704
2022-10-09T07:34:07.430Z,1656
2022-10-09T07:34:47.884Z,1636
2022-10-09T07:35:28.365Z,1604
2022-10-09T07:41:33.279Z,1480
2022-10-09T07:42:13.842Z,1472
2022-10-09T07:42:54.244Z,1464
2022-10-09T07:43:34.786Z,1460
2022-10-09T07:44:15.256Z,1460
2022-10-09T07:44:55.768Z,1452
2022-10-09T07:45:36.201Z,1444
2022-10-09T07:46:16.780Z,1440
2022-10-09T07:46:57.135Z,1440
2022-10-09T07:47:37.620Z,1436
2022-10-09T07:48:18.091Z,1428
2022-10-09T07:55:43.500Z,1404
2022-10-09T07:56:23.954Z,1404
2022-10-09T07:57:04.458Z,1400
2022-10-09T07:57:44.943Z,1392
2022-10-09T07:58:25.421Z,1388
2022-10-09T07:59:05.912Z,1392
2022-10-09T07:59:46.395Z,1392
2022-10-09T08:00:26.863Z,1388
2022-10-09T08:01:07.426Z,1388
2022-10-09T08:01:47.967Z,1384
2022-10-09T08:02:28.548Z,1380
2022-10-09T08:08:33.584Z,1360
2022-10-09T08:09:13.920Z,1356
2022-10-09T08:09:54.437Z,1356
2022-10-09T08:10:34.884Z,1356
2022-10-09T08:11:15.380Z,1352
2022-10-09T08:11:55.956Z,1348
2022-10-09T08:12:36.391Z,1344
2022-10-09T08:13:16.907Z,1344
2022-10-09T08:14:37.808Z,1348
2022-10-09T08:15:18.290Z,1344
2022-10-09T08:22:03.760Z,1320
2022-10-09T08:22:43.785Z,1316
2022-10-09T08:23:24.299Z,1312
2022-10-09T08:24:04.779Z,1308
2022-10-09T08:24:45.265Z,1304
2022-10-09T08:25:25.713Z,1300
2022-10-09T08:26:06.211Z,1296
2022-10-09T08:26:46.753Z,1296
2022-10-09T08:27:27.303Z,1292
2022-10-09T08:28:07.845Z,1292
2022-10-09T08:28:48.367Z,1288
2022-10-09T08:36:13.713Z,1256
2022-10-09T08:36:54.189Z,1256
2022-10-09T08:37:34.760Z,1252
2022-10-09T08:38:31.251Z,1252
2022-10-09T08:38:55.702Z,1252
2022-10-09T08:39:36.203Z,1248
2022-10-09T08:40:16.667Z,1244
2022-10-09T08:40:58.301Z,1248
2022-10-09T08:41:37.653Z,1244
2022-10-09T08:42:18.151Z,1240
2022-10-09T08:49:43.644Z,1220
2022-10-09T08:50:24.044Z,1220
2022-10-09T08:51:04.566Z,1220
2022-10-09T08:51:45.090Z,1216
2022-10-09T08:52:25.563Z,1212
2022-10-09T08:53:06.045Z,1212
2022-10-09T08:53:46.502Z,1212
2022-10-09T08:54:26.974Z,1208
2022-10-09T08:55:07.482Z,1208
2022-10-09T08:55:47.999Z,1208
2022-10-09T08:56:28.479Z,1204
2022-10-09T09:03:13.416Z,1184
2022-10-09T09:03:53.896Z,1180
2022-10-09T09:04:34.378Z,1180
2022-10-09T09:05:14.930Z,1184
2022-10-09T09:05:55.406Z,1176
2022-10-09T09:06:35.986Z,1176
2022-10-09T09:07:16.374Z,1176
2022-10-09T09:07:56.847Z,1176
2022-10-09T09:08:37.399Z,1172
2022-10-09T09:09:17.876Z,1172
2022-10-09T09:09:58.363Z,1168
2022-10-09T09:16:43.264Z,1160
2022-10-09T09:17:23.780Z,1160
2022-10-09T09:18:04.215Z,1160
2022-10-09T09:18:44.703Z,1160
2022-10-09T09:19:25.181Z,1156
2022-10-09T09:20:05.682Z,1156
2022-10-09T09:20:46.209Z,1152
2022-10-09T09:21:26.810Z,1152
2022-10-09T09:22:07.204Z,1148
2022-10-09T09:22:47.953Z,1152
2022-10-09T09:23:28.225Z,1148
2022-10-09T09:30:13.318Z,1136
2022-10-09T09:30:53.905Z,1132
2022-10-09T09:31:34.423Z,1132
2022-10-09T09:32:14.910Z,1132
2022-10-09T09:32:55.440Z,1128
2022-10-09T09:33:38.142Z,1132
2022-10-09T09:34:16.424Z,1128
2022-10-09T09:34:56.910Z,1128
2022-10-09T09:35:37.452Z,1124
2022-10-09T09:36:17.926Z,1124
2022-10-09T09:42:23.336Z,1108
2022-10-09T09:43:05.017Z,1108
2022-10-09T09:43:45.229Z,1108
2022-10-09T09:44:25.762Z,1108
2022-10-09T09:45:06.311Z,1104
2022-10-09T09:45:46.768Z,1104
2022-10-09T09:46:27.342Z,1100
2022-10-09T09:47:07.751Z,1100
2022-10-09T09:47:48.517Z,1100
2022-10-09T09:55:13.708Z,1076
2022-10-09T09:55:54.239Z,1076
2022-10-09T09:56:47.982Z,1076
2022-10-09T09:57:19.589Z,1076
2022-10-09T09:57:55.678Z,1076
2022-10-09T09:58:36.181Z,1072
2022-10-09T09:59:16.694Z,1072
2022-10-09T09:59:57.236Z,1072
2022-10-09T10:00:37.751Z,1072
2022-10-09T10:01:18.250Z,1068
2022-10-09T10:08:03.345Z,1060
2022-10-09T10:08:43.821Z,1056
2022-10-09T10:09:24.336Z,1060
2022-10-09T10:10:04.826Z,1056
2022-10-09T10:10:45.357Z,1052
2022-10-09T10:11:25.878Z,1052
2022-10-09T10:12:06.378Z,1052
2022-10-09T10:12:47.218Z,1048
2022-10-09T10:13:27.439Z,1044
2022-10-09T10:14:07.918Z,1044
2022-10-09T10:14:48.426Z,1044
2022-10-09T10:21:33.504Z,1032
2022-10-09T10:22:13.865Z,1028
2022-10-09T10:22:54.390Z,1024
2022-10-09T10:23:34.908Z,1028
2022-10-09T10:24:15.379Z,1024
2022-10-09T10:24:55.884Z,1028
2022-10-09T10:25:36.349Z,1024
2022-10-09T10:26:16.850Z,1024
2022-10-09T10:27:37.787Z,1020
2022-10-09T10:28:18.354Z,1020
2022-10-09T10:35:03.321Z,1012
2022-10-09T10:35:43.840Z,1008
2022-10-09T10:36:24.341Z,1008
2022-10-09T10:37:04.824Z,1004
2022-10-09T10:37:45.323Z,1000
2022-10-09T10:38:25.840Z,1004
2022-10-09T10:39:06.339Z,1004
2022-10-09T10:39:46.850Z,1000
2022-10-09T10:40:27.414Z,1000
2022-10-09T10:41:07.844Z,1000
2022-10-09T10:41:48.358Z,1000
2022-10-09T10:49:13.722Z,992
2022-10-09T10:49:54.216Z,992
2022-10-09T10:50:34.733Z,988
2022-10-09T10:51:15.191Z,988
2022-10-09T10:51:55.672Z,984
2022-10-09T10:52:36.151Z,984
2022-10-09T10:53:16.734Z,988
2022-10-09T10:53:57.289Z,988
2022-10-09T10:54:37.720Z,984
2022-10-09T10:55:18.246Z,984
2022-10-09T11:02:43.608Z,976
2022-10-09T11:03:24.149Z,972
2022-10-09T11:04:04.613Z,976
2022-10-09T11:04:45.107Z,972
2022-10-09T11:05:25.548Z,972
2022-10-09T11:06:06.072Z,972
2022-10-09T11:06:46.549Z,968
2022-10-09T11:07:27.031Z,968
2022-10-09T11:08:07.516Z,972
2022-10-09T11:08:48.025Z,972
2022-10-09T11:09:28.532Z,968
2022-10-09T11:16:13.447Z,960
2022-10-09T11:16:53.890Z,964
2022-10-09T11:17:34.365Z,964
2022-10-09T11:18:14.845Z,960
2022-10-09T11:18:55.365Z,964
2022-10-09T11:19:35.844Z,960
2022-10-09T11:20:16.406Z,956
2022-10-09T11:20:56.842Z,960
2022-10-09T11:21:37.373Z,956
2022-10-09T11:22:17.934Z,952
2022-10-09T11:22:58.417Z,956
2022-10-09T11:29:43.493Z,948
2022-10-09T11:30:23.944Z,940
2022-10-09T11:31:04.485Z,940
2022-10-09T11:31:44.996Z,944
2022-10-09T11:32:25.412Z,948
2022-10-09T11:33:05.920Z,944
2022-10-09T11:33:46.423Z,944
2022-10-09T11:34:26.939Z,940
2022-10-09T11:35:07.385Z,944
2022-10-09T11:35:47.893Z,944
2022-10-09T11:36:28.386Z,948
2022-10-09T11:43:13.248Z,936
2022-10-09T11:43:53.789Z,936
2022-10-09T11:44:34.344Z,932
2022-10-09T11:45:14.759Z,928
2022-10-09T11:46:35.732Z,928
2022-10-09T11:47:16.211Z,928
2022-10-09T11:47:56.761Z,928
2022-10-09T11:49:17.794Z,920
2022-10-09T11:49:58.252Z,924
2022-10-09T12:31:53.563Z,888
2022-10-09T12:32:33.840Z,892
2022-10-09T12:33:14.328Z,892
2022-10-09T12:33:54.743Z,888
2022-10-09T12:34:35.225Z,888
2022-10-09T12:35:15.712Z,888
2022-10-09T12:35:56.178Z,888
2022-10-09T12:36:36.649Z,884
2022-10-09T12:37:17.145Z,888
2022-10-09T12:37:57.659Z,892
2022-10-09T12:38:38.127Z,888
2022-10-09T12:46:36.117Z,880
2022-10-09T12:47:16.630Z,884
2022-10-09T12:47:57.036Z,880
2022-10-09T12:48:37.516Z,876
2022-10-09T12:49:18.019Z,884
2022-10-09T12:49:58.498Z,872
2022-10-09T12:50:39.050Z,864
2022-10-09T12:51:19.503Z,868
2022-10-09T12:51:59.973Z,876
2022-10-09T12:52:40.411Z,872
2022-10-09T12:53:20.949Z,876
2022-10-09T13:00:05.688Z,872
2022-10-09T13:00:46.168Z,868
2022-10-09T13:01:26.731Z,868
2022-10-09T13:02:07.363Z,868
2022-10-09T13:02:47.986Z,868
2022-10-09T13:03:28.093Z,868
2022-10-09T13:04:49.098Z,864
2022-10-09T13:05:29.550Z,864
2022-10-09T13:06:10.041Z,864
2022-10-09T13:06:50.537Z,860
2022-10-09T13:07:30.995Z,864
2022-10-09T13:14:15.879Z,852
2022-10-09T13:14:56.319Z,860
2022-10-09T13:15:36.852Z,856
2022-10-09T13:16:17.453Z,856
2022-10-09T13:16:57.959Z,852
2022-10-09T13:17:38.361Z,848
2022-10-09T13:18:18.930Z,856
2022-10-09T13:18:59.369Z,852
2022-10-09T13:19:39.901Z,852
2022-10-09T13:20:20.359Z,852
2022-10-09T13:21:00.811Z,852
2022-10-09T13:28:26.250Z,844
2022-10-09T13:29:06.654Z,844
2022-10-09T13:29:47.152Z,836
2022-10-09T13:30:27.689Z,836
2022-10-09T13:31:08.195Z,832
2022-10-09T13:31:48.591Z,836
2022-10-09T13:32:29.077Z,832
2022-10-09T13:33:09.625Z,832
2022-10-09T13:33:50.087Z,836
2022-10-09T13:34:30.591Z,828
2022-10-09T13:35:11.080Z,832
2022-10-09T13:41:55.854Z,820
2022-10-09T13:42:36.338Z,816
2022-10-09T13:43:16.787Z,816
2022-10-09T13:43:57.238Z,816
2022-10-09T13:44:37.703Z,816
2022-10-09T13:45:18.182Z,812
2022-10-09T13:45:58.748Z,816
2022-10-09T13:46:39.138Z,812
2022-10-09T13:47:23.449Z,812
2022-10-09T13:48:00.078Z,808
2022-10-09T13:49:21.052Z,808
2022-10-09T13:56:05.751Z,788
2022-10-09T13:56:46.232Z,788
2022-10-09T13:57:26.745Z,792
2022-10-09T13:58:07.280Z,780
2022-10-09T13:58:47.674Z,784
2022-10-09T13:59:28.173Z,784
2022-10-09T14:00:08.689Z,780
2022-10-09T14:00:49.205Z,780
2022-10-09T14:01:29.742Z,776
2022-10-09T14:02:10.142Z,776
2022-10-09T14:02:50.609Z,776
2022-10-09T14:10:18.246Z,760
2022-10-09T14:10:56.323Z,760
2022-10-09T14:11:36.804Z,756
2022-10-09T14:12:17.265Z,760
2022-10-09T14:12:57.733Z,760
2022-10-09T14:13:38.224Z,752
2022-10-09T14:14:18.698Z,756
2022-10-09T14:14:59.176Z,760
2022-10-09T14:15:39.639Z,772
2022-10-09T14:17:00.629Z,764
2022-10-09T14:24:25.848Z,772
2022-10-09T14:25:06.312Z,776
2022-10-09T14:25:46.853Z,764
2022-10-09T14:26:27.254Z,776
2022-10-09T14:27:07.751Z,768
2022-10-09T14:27:48.237Z,776
2022-10-09T14:28:28.774Z,776
2022-10-09T14:29:09.217Z,780
2022-10-09T14:29:51.153Z,784
2022-10-09T14:30:30.224Z,780
2022-10-09T14:37:23.995Z,784
2022-10-09T14:37:56.202Z,784
2022-10-09T14:38:36.708Z,792
2022-10-09T14:39:57.791Z,804
2022-10-09T14:40:38.341Z,812
2022-10-09T14:41:18.806Z,816
2022-10-09T14:41:59.303Z,828
2022-10-09T14:42:39.780Z,836
2022-10-09T14:43:20.292Z,840
2022-10-09T14:44:00.835Z,844
2022-10-09T14:51:26.083Z,1028
2022-10-09T14:52:06.494Z,1032
2022-10-09T14:52:47.368Z,1040
2022-10-09T14:53:27.543Z,1052
2022-10-09T14:54:07.982Z,1056
2022-10-09T14:54:48.445Z,1052
2022-10-09T14:55:28.919Z,1052
2022-10-09T14:56:09.434Z,1060
2022-10-09T14:56:49.918Z,1088
2022-10-09T14:57:35.137Z,1248
2022-10-09T14:58:10.902Z,3416
2022-10-09T15:02:57.556Z,4644
2022-10-09T15:03:36.292Z,2968
2022-10-09T15:06:50.302Z,1160
2022-10-09T15:07:30.744Z,1172
2022-10-09T15:08:11.153Z,1168
2022-10-09T15:08:51.731Z,1192
2022-10-09T15:09:32.207Z,1204
2022-10-09T15:10:12.658Z,1208
2022-10-09T15:10:53.120Z,1180
2022-10-09T15:11:33.595Z,1160
2022-10-09T15:12:14.072Z,1152
2022-10-09T15:15:44.180Z,1084
2022-10-09T15:16:24.598Z,1084
2022-10-09T15:17:05.122Z,1072
2022-10-09T15:17:45.571Z,1068
2022-10-09T15:18:26.051Z,1064
2022-10-09T15:19:06.530Z,1048
2022-10-09T15:19:47.050Z,1028
2022-10-09T15:21:08.024Z,968
2022-10-09T15:21:48.481Z,928
2022-10-09T15:22:28.959Z,876
2022-10-09T15:29:13.713Z,640
2022-10-09T15:29:54.282Z,636
2022-10-09T15:30:34.742Z,636
2022-10-09T15:31:15.205Z,632
2022-10-09T15:31:55.725Z,624
2022-10-09T15:32:36.169Z,620
2022-10-09T15:33:16.625Z,612
2022-10-09T15:33:57.124Z,608
2022-10-09T15:34:40.730Z,604
2022-10-09T15:35:18.086Z,604
2022-10-09T15:35:58.556Z,600
2022-10-09T15:36:39.046Z,600
2022-10-09T15:43:23.837Z,572
2022-10-09T15:44:04.387Z,568
2022-10-09T15:44:44.875Z,560
2022-10-09T15:45:25.375Z,556
2022-10-09T15:46:05.837Z,552
2022-10-09T15:46:46.320Z,544
2022-10-09T15:47:39.568Z,540
2022-10-09T15:48:07.283Z,536
2022-10-09T15:48:47.713Z,532
2022-10-09T15:49:28.235Z,528
2022-10-09T15:50:08.696Z,524
2022-10-09T15:57:34.054Z,476
2022-10-09T15:58:14.507Z,476
2022-10-09T15:58:54.959Z,472
2022-10-09T15:59:35.482Z,468
2022-10-09T16:00:15.974Z,464
2022-10-09T16:00:56.460Z,460
2022-10-09T16:01:36.956Z,456
2022-10-09T16:02:17.424Z,456
2022-10-09T16:02:57.929Z,448
2022-10-09T16:03:38.441Z,444
2022-10-09T16:04:18.929Z,436
2022-10-09T16:11:04.827Z,380
2022-10-09T16:11:45.312Z,376
2022-10-09T16:12:25.763Z,372
2022-10-09T16:13:06.249Z,368
2022-10-09T16:13:46.768Z,360
2022-10-09T16:14:27.259Z,356
2022-10-09T16:15:07.740Z,352
2022-10-09T16:15:48.252Z,348
2022-10-09T16:16:28.711Z,344
2022-10-09T16:24:11.395Z,284
2022-10-09T16:24:51.762Z,276
2022-10-09T16:25:32.259Z,272
2022-10-09T16:26:12.743Z,268
2022-10-09T16:26:53.216Z,260
2022-10-09T16:27:33.685Z,252
2022-10-09T16:28:14.199Z,252
2022-10-09T16:28:54.812Z,248
2022-10-09T16:29:35.171Z,240
2022-10-09T16:30:15.592Z,236
2022-10-09T16:30:56.044Z,228
2022-10-09T16:38:21.311Z,164
2022-10-09T16:39:01.798Z,160
2022-10-09T16:39:42.282Z,156
2022-10-09T16:40:28.650Z,148
2022-10-09T16:41:03.290Z,144
2022-10-09T16:41:43.748Z,136
2022-10-09T16:42:24.218Z,128
2022-10-09T16:43:04.724Z,124
2022-10-09T16:44:25.673Z,112
2022-10-09T16:45:06.142Z,108
2022-10-09T16:52:31.393Z,56
2022-10-09T16:53:11.874Z,52
2022-10-09T16:53:52.388Z,48
2022-10-09T16:54:32.869Z,44
2022-10-09T16:55:13.376Z,40
2022-10-09T16:55:53.862Z,36
2022-10-09T16:56:34.330Z,32
2022-10-09T16:57:14.785Z,28
2022-10-09T16:57:55.265Z,28
2022-10-09T16:58:35.745Z,24
2022-10-09T16:59:16.205Z,24
2022-10-09T17:06:41.383Z,8
2022-10-09T17:07:21.828Z,4
2022-10-09T17:08:02.293Z,8
2022-10-09T17:08:42.763Z,4
2022-10-09T17:09:23.279Z,4
2022-10-09T17:10:03.713Z,4
2022-10-09T17:10:44.200Z,0
2022-10-09T17:11:24.654Z,4
2022-10-09T17:12:05.114Z,4
2022-10-09T17:13:26.127Z,0
2022-10-09T17:20:10.962Z,0
2022-10-09T17:20:51.517Z,0
2022-10-09T17:21:34.095Z,0
2022-10-09T17:22:12.448Z,0
2022-10-09T17:22:52.919Z,0
2022-10-09T17:23:33.434Z,0
2022-10-09T17:24:13.943Z,0
2022-10-09T17:24:54.503Z,0
2022-10-09T17:25:35.731Z,0
2022-10-09T17:26:15.353Z,0
2022-10-09T17:26:55.822Z,0
2022-10-09T17:27:36.376Z,0
2022-10-09T17:34:21.311Z,0
2022-10-09T17:35:01.744Z,0
2022-10-09T17:35:42.241Z,0
2022-10-09T17:36:22.706Z,0
2022-10-09T17:37:03.208Z,0
2022-10-09T17:37:43.705Z,0
2022-10-09T17:38:24.252Z,0
2022-10-09T17:39:04.739Z,0
2022-10-09T17:39:48.599Z,0
2022-10-09T17:40:25.732Z,0
2022-10-09T17:41:06.158Z,0
2022-10-09T17:47:50.997Z,0
2022-10-09T17:48:31.484Z,0
2022-10-09T17:49:11.956Z,0
2022-10-09T17:49:52.448Z,0
2022-10-09T17:50:32.935Z,0
2022-10-09T17:51:13.393Z,0
2022-10-09T17:51:54.045Z,0
2022-10-09T17:52:34.491Z,0
2022-10-09T17:53:14.950Z,0
2022-10-09T17:53:55.488Z,0
2022-10-09T17:54:35.905Z,0
2022-10-09T18:33:48.434Z,0
2022-10-09T18:34:30.216Z,0
2022-10-09T18:35:11.351Z,0
2022-10-09T18:35:52.344Z,0
2022-10-09T18:36:33.264Z,0
2022-10-09T18:39:58.127Z,0
2022-10-09T18:40:43.169Z,0
2022-10-09T18:41:20.128Z,0
2022-10-09T18:42:01.058Z,0
2022-10-09T18:42:42.060Z,0
2022-10-09T18:43:23.017Z,0
2022-10-09T18:46:47.876Z,0
2022-10-09T18:47:28.807Z,0
2022-10-09T18:48:09.765Z,0
2022-10-09T18:48:50.881Z,0
2022-10-09T18:49:31.839Z,0
2022-10-09T18:50:12.803Z,0
2022-10-09T18:54:18.686Z,0
2022-10-09T18:54:59.652Z,0
2022-10-09T18:55:40.677Z,0
2022-10-09T18:56:21.603Z,0
2022-10-09T18:57:02.593Z,0
2022-10-09T19:01:08.382Z,0
2022-10-09T19:01:49.397Z,0
2022-10-09T19:02:30.403Z,0
2022-10-09T19:03:11.299Z,0
2022-10-09T19:03:52.293Z,0
2022-10-09T19:04:33.240Z,0
2022-10-09T19:07:58.151Z,0
2022-10-09T19:08:39.144Z,0
2022-10-09T19:09:20.117Z,0
2022-10-09T19:10:01.135Z,0
2022-10-09T19:10:42.073Z,0
2022-10-09T19:14:48.017Z,0
2022-10-09T19:15:28.987Z,0
2022-10-09T19:16:09.959Z,0
2022-10-09T19:16:50.996Z,0
2022-10-09T19:17:31.828Z,0
2022-10-09T19:18:12.819Z,0
2022-10-09T19:21:37.823Z,0
2022-10-09T19:22:23.026Z,0
2022-10-09T19:22:59.738Z,0
2022-10-09T19:23:40.706Z,0
2022-10-09T19:25:02.672Z,0
2022-10-09T19:29:08.786Z,0
2022-10-09T19:29:49.661Z,0
2022-10-09T19:33:05.799Z,0
2022-10-09T19:33:46.531Z,0
2022-10-09T19:34:27.004Z,0
2022-10-09T19:35:07.450Z,0
2022-10-09T19:35:47.969Z,0
2022-10-09T19:36:28.386Z,0
2022-10-09T19:37:08.931Z,0
2022-10-09T19:37:49.603Z,0
2022-10-09T19:38:29.932Z,0
2022-10-09T19:39:10.382Z,0
2022-10-09T19:45:55.286Z,0
2022-10-09T19:46:35.765Z,0
2022-10-09T19:47:57.006Z,0
2022-10-09T19:48:37.266Z,0
2022-10-09T19:49:17.750Z,0
2022-10-09T19:49:58.250Z,0
2022-10-09T19:50:39.701Z,0
2022-10-09T19:51:20.177Z,0
2022-10-09T19:58:45.457Z,0
2022-10-09T19:59:25.929Z,0
2022-10-09T20:00:46.895Z,0
2022-10-09T20:01:27.424Z,0
2022-10-09T20:02:07.884Z,0
2022-10-09T20:02:48.593Z,0
2022-10-09T20:03:28.800Z,0
2022-10-09T20:04:09.258Z,0
2022-10-09T20:04:49.738Z,0
2022-10-09T20:05:30.191Z,0
2022-10-09T20:12:55.496Z,0
2022-10-09T20:13:35.959Z,0
2022-10-09T20:14:16.471Z,0
2022-10-09T20:14:56.931Z,0
2022-10-09T20:15:38.053Z,0
2022-10-09T20:16:18.507Z,0